TFM - Tactical Decision Aid (Experimental) INFO Settings
ID: Runway Winds: CIG/VIS Threshold: METAR Board: Map:

KIAD - Washington-Dulles Intl

Updated at: 2359 UTC 27 May 2016
Latest TAF at: 2334 UTC 27 May 2016

TAF Board

Time2352Z28/00Z28/01Z28/02Z28/03Z28/04Z28/05Z28/06Z28/07Z28/08Z28/09Z28/10Z28/11Z28/12Z
TypeOBSPRVLPRVLPRVLPRVLPRVLPRVLPRVLPRVLPRVLPRVLPRVLPRVLPRVL
VIS10>6>6>6>6>633333333
CIG220--------------------------
CoverBKNSCTSCTSCTSCTSCTSCTSCTSCTSCTSCTSCTSCTSCT
FltCatVFRVFRVFRVFRVFRVFRMVFRMVFRMVFRMVFRMVFRMVFRMVFRMVFR
WX--VCTS--------BRBRBRBRBRBRBRBR
WDir210180180180180180180180180180180180180180
WSpd56666655555555
WGst----------------------------
TAF
KIAD 272334Z 2800/2906 18006KT P6SM VCTS SCT050CB
  FM280100 18006KT P6SM SCT050
  FM280500 18005KT 3SM BR SCT250
  FM281300 19005KT P6SM SCT250
  FM281900 18010KT P6SM SCT250
  FM290300 17005KT P6SM FEW200


METAR
KIAD 272352Z 21005KT 10SM FEW055 SCT140 BKN220 28/19 A3005 RMK AO2 SLP172 TCU DSNT NE T02830189 10317 20278 53004
KIAD 272252Z 20007KT 10SM FEW050TCU FEW180 BKN220 29/19 A3003 RMK AO2 SLP165 CB DSNT W MOV E TCU NE T02940189

TAF/METAR Board Legend

Potential Impact
  None Marginal Slight Moderate High
Visibility (sm) >5 3≤X≤5 1≤X<3 0.5≤X<1 <0.5
Ceiling (100 ft) >30 10≤X≤30 4≤X<10 2≤X<4 <2
Wind Speed (kt) <10 10≤X<20 20≤X<30 ≥30
Wind Gust (kt) <15 15≤X<25 25≤X<35 ≥35
Weather No Wx Reported VCTS -TS,-FZRA TS,FZRA +TS,+FZRA




Page loaded:  23:59 UTC  |   04:59 PM Pacific  |   05:59 PM Mountain  |   06:59 PM Central  |   07:59 PM Eastern